Time;durP1;ratioP1;P1;durP2;ratioP2;P2;SDS_P1;SDS_P2;PMS_P1;PMS_P2;Temp;Humidity;BMP_temperature;BMP_pressure;BME280_temperature;BME280_humidity;BME280_pressure;Samples;Min_cycle;Max_cycle;Signal;HPM_P1;HPM_P2
2022/03/12 00:00:02;;;;;;;4.77;3.53;;;0.70;44.60;;;;;;5085093;28;20256;-73
2022/03/12 00:02:30;;;;;;;3.70;3.40;;;0.70;44.60;;;;;;5074776;28;20650;-71
2022/03/12 00:04:56;;;;;;;4.23;3.53;;;0.70;44.80;;;;;;5074569;28;20175;-72
2022/03/12 00:07:21;;;;;;;4.20;3.60;;;0.60;44.70;;;;;;5067725;28;20272;-72
2022/03/12 00:09:47;;;;;;;4.17;3.77;;;0.60;44.70;;;;;;5054204;28;20176;-72
2022/03/12 00:12:14;;;;;;;3.97;3.40;;;0.50;44.90;;;;;;5069512;28;20184;-72
2022/03/12 00:14:46;;;;;;;3.90;3.20;;;0.50;45.10;;;;;;5061316;28;20183;-72
2022/03/12 00:17:13;;;;;;;4.00;3.57;;;0.40;45.10;;;;;;5054295;28;20540;-72
2022/03/12 00:19:40;;;;;;;4.10;3.77;;;0.40;45.40;;;;;;5054139;28;20207;-72
2022/03/12 00:22:08;;;;;;;4.33;3.93;;;0.30;45.60;;;;;;5053876;28;20175;-73
2022/03/12 00:24:34;;;;;;;4.23;3.67;;;0.30;46.00;;;;;;5073842;28;20253;-71
2022/03/12 00:27:01;;;;;;;4.63;3.63;;;0.20;46.30;;;;;;5072549;28;20191;-72
2022/03/12 00:29:27;;;;;;;7.33;4.20;;;0.10;47.70;;;;;;5073622;28;20186;-73
2022/03/12 00:31:54;;;;;;;6.27;4.50;;;0.00;48.20;;;;;;5074134;28;20176;-73
2022/03/12 00:34:19;;;;;;;5.17;4.43;;;-0.10;49.40;;;;;;5054731;28;20211;-71
2022/03/12 00:36:45;;;;;;;8.20;4.93;;;-0.10;50.00;;;;;;5053873;28;20175;-72
2022/03/12 00:39:12;;;;;;;5.70;4.80;;;-0.20;50.60;;;;;;5054001;28;20206;-73
2022/03/12 00:41:38;;;;;;;4.87;4.27;;;-0.30;51.20;;;;;;5053757;28;20219;-73
2022/03/12 00:44:05;;;;;;;5.37;4.83;;;-0.30;51.30;;;;;;5052725;28;20204;-72
2022/03/12 00:46:31;;;;;;;4.83;4.30;;;-0.40;51.30;;;;;;5053560;28;20181;-72
2022/03/12 00:48:57;;;;;;;4.97;4.47;;;-0.40;51.30;;;;;;5053855;28;20188;-71
2022/03/12 00:51:23;;;;;;;6.80;4.33;;;-0.50;51.60;;;;;;5062310;28;20609;-73
2022/03/12 00:53:48;;;;;;;6.47;4.97;;;-0.50;51.80;;;;;;5073865;28;20233;-72
2022/03/12 00:56:14;;;;;;;4.40;4.00;;;-0.60;52.20;;;;;;5073453;28;20179;-73
2022/03/12 00:58:45;;;;;;;5.83;4.53;;;-0.70;52.60;;;;;;5073303;28;20195;-73
2022/03/12 01:01:11;;;;;;;6.60;4.60;;;-0.70;52.60;;;;;;5068126;28;20180;-72
2022/03/12 01:03:37;;;;;;;6.37;4.43;;;-0.80;52.50;;;;;;5053592;28;20196;-72
2022/03/12 01:06:05;;;;;;;5.10;4.70;;;-0.80;52.80;;;;;;5068625;28;20658;-71
2022/03/12 01:08:32;;;;;;;8.53;4.73;;;-0.90;53.20;;;;;;5068971;28;20582;-71
2022/03/12 01:11:04;;;;;;;5.90;4.90;;;-0.90;53.70;;;;;;5072702;28;20171;-71
2022/03/12 01:13:30;;;;;;;5.83;4.40;;;-1.00;54.00;;;;;;5073532;28;20209;-71
2022/03/12 01:15:56;;;;;;;5.63;4.17;;;-1.10;54.30;;;;;;5074320;28;20180;-73
2022/03/12 01:18:23;;;;;;;5.17;4.57;;;-1.10;54.20;;;;;;5080318;28;20633;-73
2022/03/12 01:20:50;;;;;;;5.87;4.17;;;-1.20;54.20;;;;;;5073273;28;20263;-73
2022/03/12 01:23:18;;;;;;;5.47;4.93;;;-1.20;54.50;;;;;;5077121;28;20194;-72
2022/03/12 01:25:46;;;;;;;6.07;4.53;;;-1.20;55.00;;;;;;5075041;28;20187;-72
2022/03/12 01:28:13;;;;;;;4.77;4.27;;;-1.30;55.20;;;;;;5069924;28;20191;-72
2022/03/12 01:30:42;;;;;;;4.93;4.50;;;-1.30;55.10;;;;;;5069158;28;20529;-73
2022/03/12 01:33:09;;;;;;;5.90;4.50;;;-1.30;55.20;;;;;;5061201;28;20222;-73
2022/03/12 01:35:35;;;;;;;5.60;4.57;;;-1.30;55.30;;;;;;5053746;28;20184;-73
2022/03/12 01:38:02;;;;;;;5.27;4.80;;;-1.20;55.20;;;;;;5064003;28;20188;-73
2022/03/12 01:40:28;;;;;;;5.60;4.47;;;-1.20;55.10;;;;;;5072918;28;20167;-72
2022/03/12 01:42:54;;;;;;;5.83;4.23;;;-1.30;55.10;;;;;;5064026;28;20195;-72
2022/03/12 01:45:26;;;;;;;5.20;4.70;;;-1.30;55.30;;;;;;5072535;28;20208;-72
2022/03/12 01:48:00;;;;;;;7.40;4.63;;;-1.30;55.30;;;;;;5072726;28;20167;-72
2022/03/12 01:50:32;;;;;;;5.73;4.63;;;-1.40;55.50;;;;;;5072625;28;20175;-72
2022/03/12 01:53:09;;;;;;;5.70;5.20;;;-1.40;55.80;;;;;;5075644;28;20206;-72
2022/03/12 01:55:37;;;;;;;5.50;4.93;;;-1.40;55.90;;;;;;5080951;28;20256;-72
2022/03/12 01:58:04;;;;;;;4.90;4.37;;;-1.50;56.20;;;;;;5071654;28;20180;-71
2022/03/12 02:00:43;;;;;;;5.37;4.70;;;-1.50;57.10;;;;;;5058052;28;20163;-72
2022/03/12 02:03:10;;;;;;;6.00;4.50;;;-1.50;56.80;;;;;;5080562;28;20186;-73
2022/03/12 02:05:36;;;;;;;4.87;4.33;;;-1.60;56.70;;;;;;5070658;28;20175;-73
2022/03/12 02:08:03;;;;;;;5.07;4.20;;;-1.50;56.80;;;;;;5069682;28;20225;-73
2022/03/12 02:10:29;;;;;;;6.47;4.10;;;-1.70;57.00;;;;;;5064366;28;20180;-72
2022/03/12 02:12:55;;;;;;;4.47;4.10;;;-1.70;57.10;;;;;;5069180;28;20203;-71
2022/03/12 02:15:22;;;;;;;4.90;4.50;;;-1.60;57.00;;;;;;5071988;28;20627;-74
2022/03/12 02:17:50;;;;;;;5.50;4.63;;;-1.70;56.60;;;;;;5080443;28;20197;-72
2022/03/12 02:20:18;;;;;;;4.40;4.00;;;-1.70;56.60;;;;;;5067012;28;20180;-73
2022/03/12 02:22:45;;;;;;;4.57;4.07;;;-1.80;56.80;;;;;;5051073;28;20215;-73
2022/03/12 02:25:14;;;;;;;4.73;4.33;;;-1.70;56.80;;;;;;5051502;28;20180;-73
2022/03/12 02:27:40;;;;;;;4.90;4.40;;;-1.70;56.60;;;;;;5056250;28;20171;-73
2022/03/12 02:30:07;;;;;;;8.50;5.70;;;-1.70;56.60;;;;;;5054901;28;20180;-73
2022/03/12 02:32:33;;;;;;;5.40;4.80;;;-1.70;57.00;;;;;;5067282;28;20713;-72
2022/03/12 02:34:59;;;;;;;5.23;4.73;;;-1.80;57.50;;;;;;5051295;28;20183;-71
2022/03/12 02:37:29;;;;;;;5.87;4.10;;;-1.80;57.70;;;;;;5055644;28;20649;-73
2022/03/12 02:39:56;;;;;;;4.20;3.80;;;-1.90;58.10;;;;;;5071760;28;20203;-73
2022/03/12 02:42:23;;;;;;;5.90;4.60;;;-1.90;57.60;;;;;;5071723;28;20178;-73
2022/03/12 02:44:50;;;;;;;4.83;4.43;;;-1.80;57.20;;;;;;5071121;28;20178;-73
2022/03/12 02:47:20;;;;;;;5.53;5.03;;;-1.80;57.10;;;;;;5083400;28;20852;-73
2022/03/12 02:49:52;;;;;;;5.63;4.73;;;-1.90;57.40;;;;;;5091915;28;20231;-73
2022/03/12 02:52:19;;;;;;;5.37;4.67;;;-2.00;57.50;;;;;;5091833;28;20231;-73
2022/03/12 02:54:46;;;;;;;6.00;4.60;;;-2.00;58.30;;;;;;5067653;28;20186;-73
2022/03/12 02:57:12;;;;;;;5.30;4.13;;;-2.10;58.20;;;;;;5055590;28;20206;-73
2022/03/12 02:59:43;;;;;;;5.13;4.57;;;-2.00;58.10;;;;;;5071510;28;20249;-75
2022/03/12 03:02:10;;;;;;;6.97;5.17;;;-2.00;58.10;;;;;;5069906;28;20179;-75
2022/03/12 03:04:39;;;;;;;8.90;5.50;;;-2.00;58.30;;;;;;5072202;28;20274;-75
2022/03/12 03:07:06;;;;;;;6.13;5.20;;;-2.10;58.30;;;;;;5071278;28;20218;-75
2022/03/12 03:09:32;;;;;;;5.70;4.63;;;-2.10;58.50;;;;;;5063241;28;20574;-75
2022/03/12 03:12:02;;;;;;;7.43;5.20;;;-2.10;58.60;;;;;;5051288;28;20168;-75
2022/03/12 03:14:28;;;;;;;4.37;3.90;;;-2.10;59.50;;;;;;5070941;28;20199;-75
2022/03/12 03:16:55;;;;;;;4.60;4.20;;;-2.10;59.20;;;;;;5071144;28;20186;-75
2022/03/12 03:19:26;;;;;;;5.53;4.63;;;-2.10;58.70;;;;;;5059477;28;20298;-76
2022/03/12 03:21:56;;;;;;;6.27;4.93;;;-2.10;58.70;;;;;;5051540;28;20572;-75
2022/03/12 03:24:24;;;;;;;4.67;4.27;;;-2.20;58.30;;;;;;5051317;28;20276;-75
2022/03/12 03:26:57;;;;;;;5.90;4.83;;;-2.10;58.70;;;;;;5051000;28;20207;-75
2022/03/12 03:29:29;;;;;;;5.10;4.57;;;-2.10;58.90;;;;;;5051126;28;20592;-75
2022/03/12 03:31:56;;;;;;;4.40;4.03;;;-2.10;59.20;;;;;;5051250;28;20250;-75
2022/03/12 03:34:23;;;;;;;4.93;4.53;;;-2.10;59.80;;;;;;5054039;28;20199;-73
2022/03/12 03:36:49;;;;;;;4.70;4.27;;;-2.20;60.20;;;;;;5068287;28;20177;-74
2022/03/12 03:39:15;;;;;;;5.33;4.77;;;-2.20;60.20;;;;;;5056397;28;20203;-74
2022/03/12 03:41:41;;;;;;;6.70;4.53;;;-2.20;60.10;;;;;;5055063;28;20247;-73
2022/03/12 03:44:07;;;;;;;6.93;4.97;;;-2.20;60.40;;;;;;5060788;28;20256;-75
2022/03/12 03:46:34;;;;;;;5.57;4.60;;;-2.20;60.70;;;;;;5079050;28;20168;-76
2022/03/12 03:49:00;;;;;;;5.17;4.67;;;-2.20;60.70;;;;;;5086696;28;20248;-76
2022/03/12 03:51:26;;;;;;;5.80;4.63;;;-2.20;60.90;;;;;;5095014;28;20197;-76
2022/03/12 03:53:52;;;;;;;5.87;4.83;;;-2.20;61.30;;;;;;5082068;28;20196;-76
2022/03/12 03:56:19;;;;;;;5.07;4.57;;;-2.20;60.50;;;;;;5069025;28;20242;-76
2022/03/12 03:58:45;;;;;;;4.90;4.40;;;-2.20;60.10;;;;;;5082768;28;20191;-76
2022/03/12 04:01:15;;;;;;;4.83;4.43;;;-2.20;60.00;;;;;;5083018;28;20218;-75
2022/03/12 04:03:47;;;;;;;6.23;4.60;;;-2.30;60.20;;;;;;5071383;28;20196;-76
2022/03/12 04:06:24;;;;;;;5.50;4.87;;;-2.30;60.40;;;;;;5074455;28;20182;-76
2022/03/12 04:08:51;;;;;;;4.73;4.07;;;-2.30;60.30;;;;;;5084123;28;20194;-76
2022/03/12 04:11:20;;;;;;;4.50;4.10;;;-2.30;60.10;;;;;;5075559;28;20179;-75
2022/03/12 04:13:48;;;;;;;5.93;4.50;;;-2.30;59.90;;;;;;5080457;28;20289;-76
2022/03/12 04:16:15;;;;;;;5.03;4.60;;;-2.30;59.80;;;;;;5064835;28;20594;-76
2022/03/12 04:18:45;;;;;;;5.77;4.83;;;-2.20;60.10;;;;;;5074464;28;20191;-76
2022/03/12 04:21:12;;;;;;;4.70;4.30;;;-2.10;60.40;;;;;;5074512;28;20167;-74
2022/03/12 04:23:38;;;;;;;4.83;4.40;;;-2.10;59.80;;;;;;5074089;28;20282;-75
2022/03/12 04:26:04;;;;;;;5.17;4.30;;;-2.00;59.60;;;;;;5084680;28;20272;-74
2022/03/12 04:28:32;;;;;;;5.63;4.10;;;-1.90;59.30;;;;;;5078270;28;20511;-74
2022/03/12 04:31:01;;;;;;;4.40;4.00;;;-2.00;59.30;;;;;;5073100;28;20178;-74
2022/03/12 04:33:28;;;;;;;5.47;4.90;;;-1.90;59.30;;;;;;5074277;28;20252;-73
2022/03/12 04:35:55;;;;;;;5.33;4.67;;;-1.80;59.40;;;;;;5073536;28;20742;-74
2022/03/12 04:38:20;;;;;;;4.70;4.30;;;-1.70;59.30;;;;;;5074157;28;20195;-75
2022/03/12 04:40:46;;;;;;;4.90;4.50;;;-1.80;59.40;;;;;;5071376;28;20378;-76
2022/03/12 04:43:13;;;;;;;4.87;4.47;;;-1.90;59.70;;;;;;5061056;28;20223;-75
2022/03/12 04:45:42;;;;;;;5.67;4.17;;;-2.10;60.50;;;;;;5058333;28;20190;-76
2022/03/12 04:48:10;;;;;;;5.53;4.53;;;-2.00;61.20;;;;;;5055442;28;20175;-75
2022/03/12 04:50:35;;;;;;;4.17;3.87;;;-2.10;61.30;;;;;;5058782;28;20172;-76
2022/03/12 04:53:01;;;;;;;4.83;4.40;;;-2.10;61.50;;;;;;5054538;28;20214;-76
2022/03/12 04:55:29;;;;;;;7.37;5.40;;;-2.10;61.70;;;;;;5058581;28;20186;-75
2022/03/12 04:57:55;;;;;;;5.70;5.20;;;-2.00;62.10;;;;;;5071217;28;20180;-76
2022/03/12 05:00:25;;;;;;;7.83;7.13;;;-1.90;62.20;;;;;;5071584;28;20539;-75
2022/03/12 05:03:08;;;;;;;6.10;5.60;;;-1.90;62.00;;;;;;5086690;28;20201;-76
2022/03/12 05:05:40;;;;;;;5.90;5.00;;;-2.00;62.10;;;;;;5088699;28;20591;-76
2022/03/12 05:08:07;;;;;;;7.00;4.70;;;-2.00;62.00;;;;;;5061772;28;20183;-76
2022/03/12 05:10:33;;;;;;;5.47;5.00;;;-2.10;61.90;;;;;;5062259;28;20201;-76
2022/03/12 05:13:00;;;;;;;7.80;5.10;;;-2.20;61.90;;;;;;5061308;28;20203;-76
2022/03/12 05:15:36;;;;;;;5.37;4.40;;;-2.30;62.00;;;;;;5060440;28;20190;-76
2022/03/12 05:18:06;;;;;;;4.93;4.40;;;-2.20;62.40;;;;;;5058471;28;20232;-76
2022/03/12 05:20:34;;;;;;;6.17;4.33;;;-2.10;62.50;;;;;;5058279;28;20179;-76
2022/03/12 05:23:00;;;;;;;5.37;4.60;;;-2.10;62.20;;;;;;5061632;28;20245;-76
2022/03/12 05:25:26;;;;;;;6.23;5.13;;;-2.10;62.20;;;;;;5063972;28;20191;-75
2022/03/12 05:27:53;;;;;;;5.03;4.53;;;-2.20;62.60;;;;;;5065354;28;20685;-75
2022/03/12 05:30:20;;;;;;;5.43;4.87;;;-2.30;63.00;;;;;;5059418;28;20787;-75
2022/03/12 05:32:46;;;;;;;5.63;4.83;;;-2.30;63.20;;;;;;5083801;28;20294;-76
2022/03/12 05:35:12;;;;;;;5.23;4.40;;;-2.30;63.80;;;;;;5078325;28;20183;-75
2022/03/12 05:37:38;;;;;;;6.33;5.73;;;-2.20;64.20;;;;;;5071659;28;20186;-76
2022/03/12 05:40:07;;;;;;;6.53;4.90;;;-2.30;64.60;;;;;;5053011;28;20218;-76
2022/03/12 05:42:34;;;;;;;5.37;4.90;;;-2.30;65.10;;;;;;5052953;28;20196;-75
2022/03/12 05:45:01;;;;;;;6.57;4.50;;;-2.20;66.00;;;;;;5054902;28;20183;-75
2022/03/12 05:47:27;;;;;;;4.83;4.43;;;-2.20;65.80;;;;;;5073106;28;20252;-74
2022/03/12 05:49:53;;;;;;;4.83;4.43;;;-2.10;65.30;;;;;;5072742;28;20209;-75
2022/03/12 05:52:19;;;;;;;6.60;4.30;;;-2.00;64.80;;;;;;5072225;28;20572;-75
2022/03/12 05:54:46;;;;;;;4.40;4.00;;;-2.00;64.30;;;;;;5067797;28;20258;-75
2022/03/12 05:57:12;;;;;;;5.93;4.80;;;-1.90;64.40;;;;;;5071147;28;20178;-75
2022/03/12 05:59:37;;;;;;;5.40;4.90;;;-1.90;64.60;;;;;;5086064;28;20912;-76
2022/03/12 06:02:03;;;;;;;4.83;3.97;;;-1.80;64.30;;;;;;5080728;28;20182;-76
2022/03/12 06:04:29;;;;;;;4.80;4.40;;;-1.80;62.80;;;;;;5084803;28;20199;-75
2022/03/12 06:06:55;;;;;;;6.23;4.30;;;-1.60;62.10;;;;;;5082081;28;20183;-76
2022/03/12 06:09:21;;;;;;;6.30;5.30;;;-1.50;61.40;;;;;;5086002;28;20223;-75
2022/03/12 06:11:47;;;;;;;5.90;4.97;;;-1.40;60.90;;;;;;5089065;28;20618;-75
2022/03/12 06:14:15;;;;;;;5.57;4.53;;;-1.20;61.20;;;;;;5062203;28;20266;-75
2022/03/12 06:16:43;;;;;;;8.53;5.10;;;-1.10;60.50;;;;;;5067144;28;20174;-76
2022/03/12 06:19:09;;;;;;;5.20;4.70;;;-1.10;60.30;;;;;;5081762;28;20603;-76
2022/03/12 06:21:35;;;;;;;6.60;4.33;;;-1.10;61.10;;;;;;5077724;28;20203;-77
2022/03/12 06:24:02;;;;;;;6.73;4.60;;;-1.00;60.10;;;;;;5070859;28;20519;-75
2022/03/12 06:26:31;;;;;;;5.20;4.40;;;-0.90;60.00;;;;;;5068367;28;20635;-74
2022/03/12 06:28:58;;;;;;;4.60;4.03;;;-0.80;59.60;;;;;;5060288;28;20183;-74
2022/03/12 06:31:24;;;;;;;5.90;4.13;;;-0.70;59.40;;;;;;5060797;28;20184;-76
2022/03/12 06:33:50;;;;;;;4.80;4.40;;;-0.50;59.60;;;;;;5062404;28;20531;-76
2022/03/12 06:36:16;;;;;;;4.80;4.27;;;-0.50;58.90;;;;;;5057294;28;20188;-74
2022/03/12 06:38:42;;;;;;;5.67;4.80;;;-0.40;58.50;;;;;;5060707;28;20206;-74
2022/03/12 06:41:07;;;;;;;5.67;5.17;;;-0.30;58.30;;;;;;5060931;28;20183;-75
2022/03/12 06:43:33;;;;;;;6.07;4.93;;;-0.20;57.80;;;;;;5056840;28;20293;-73
2022/03/12 06:46:01;;;;;;;9.43;5.30;;;-0.10;57.50;;;;;;5060672;28;20336;-73
2022/03/12 06:48:28;;;;;;;5.30;4.63;;;0.00;57.60;;;;;;5066708;28;20183;-72
2022/03/12 06:50:54;;;;;;;6.57;3.80;;;0.20;57.40;;;;;;5061832;28;20183;-73
2022/03/12 06:53:19;;;;;;;4.53;4.13;;;0.30;56.10;;;;;;5075950;28;20197;-73
2022/03/12 06:55:45;;;;;;;4.53;4.00;;;0.40;56.40;;;;;;5081973;28;20209;-73
2022/03/12 06:58:11;;;;;;;5.20;4.57;;;0.50;65.60;;;;;;5091999;28;20163;-73
2022/03/12 07:00:37;;;;;;;4.80;4.30;;;0.60;60.90;;;;;;5091897;28;20498;-73
2022/03/12 07:03:03;;;;;;;4.83;4.43;;;0.70;61.20;;;;;;5079820;28;20191;-74
2022/03/12 07:05:29;;;;;;;4.73;4.20;;;0.90;57.80;;;;;;5050882;28;20199;-73
2022/03/12 07:07:56;;;;;;;5.90;4.40;;;1.10;62.20;;;;;;5054469;28;20207;-73
2022/03/12 07:10:22;;;;;;;4.30;3.90;;;1.30;55.90;;;;;;5059206;28;20171;-72
2022/03/12 07:12:48;;;;;;;6.30;4.50;;;1.50;56.60;;;;;;5061045;28;20286;-72
2022/03/12 07:15:17;;;;;;;5.23;4.70;;;1.70;56.90;;;;;;5056726;28;20206;-72
2022/03/12 07:17:43;;;;;;;5.17;4.60;;;1.90;54.60;;;;;;5066843;28;20172;-75
2022/03/12 07:20:10;;;;;;;4.83;4.23;;;2.10;54.20;;;;;;5070167;28;20306;-72
2022/03/12 07:22:36;;;;;;;6.17;5.53;;;2.30;53.40;;;;;;5054901;28;20198;-74
2022/03/12 07:25:02;;;;;;;5.40;4.53;;;2.40;53.10;;;;;;5062335;28;20175;-72
2022/03/12 07:27:28;;;;;;;5.77;4.90;;;2.60;52.60;;;;;;5065011;28;20191;-72
2022/03/12 07:29:54;;;;;;;4.73;4.33;;;2.70;52.30;;;;;;5061857;28;20191;-72
2022/03/12 07:32:20;;;;;;;6.13;4.43;;;2.80;51.40;;;;;;5065375;28;20180;-72
2022/03/12 07:34:47;;;;;;;11.47;4.43;;;3.00;51.20;;;;;;5071152;28;20197;-72
2022/03/12 07:37:12;;;;;;;4.07;3.57;;;3.10;50.30;;;;;;5060822;28;20187;-72
2022/03/12 07:39:38;;;;;;;5.43;4.10;;;3.30;49.10;;;;;;5060306;28;20209;-72
2022/03/12 07:42:05;;;;;;;4.37;3.77;;;3.40;47.90;;;;;;5066093;28;20383;-71
2022/03/12 07:44:31;;;;;;;5.27;4.17;;;3.40;48.00;;;;;;5060563;28;20207;-70
2022/03/12 07:46:57;;;;;;;4.37;3.97;;;3.70;47.60;;;;;;5068407;28;20183;-70
2022/03/12 07:49:24;;;;;;;5.50;4.40;;;3.90;46.70;;;;;;5085118;28;20182;-72
2022/03/12 07:51:50;;;;;;;4.27;3.53;;;4.00;45.90;;;;;;5074755;28;20190;-72
2022/03/12 07:54:16;;;;;;;4.03;3.63;;;4.10;45.70;;;;;;5060439;28;20203;-72
2022/03/12 07:56:43;;;;;;;4.80;3.70;;;4.30;44.40;;;;;;5060482;28;20545;-72
2022/03/12 07:59:10;;;;;;;4.83;3.60;;;4.40;44.50;;;;;;5061167;28;20214;-73
2022/03/12 08:01:36;;;;;;;3.27;3.07;;;4.50;44.60;;;;;;5060338;28;20232;-72
2022/03/12 08:04:02;;;;;;;3.43;3.13;;;4.50;42.90;;;;;;5060005;28;20196;-72
2022/03/12 08:06:28;;;;;;;3.63;3.33;;;4.60;43.40;;;;;;5062522;28;20179;-73
2022/03/12 08:08:55;;;;;;;4.37;3.60;;;4.80;43.30;;;;;;5061319;28;20176;-71
2022/03/12 08:11:30;;;;;;;4.43;3.80;;;4.90;43.50;;;;;;5058207;28;20180;-72
2022/03/12 08:14:01;;;;;;;3.90;3.60;;;5.00;43.00;;;;;;5059597;28;20251;-72
2022/03/12 08:16:28;;;;;;;2.97;2.77;;;5.00;43.10;;;;;;5059004;28;20558;-73
2022/03/12 08:18:54;;;;;;;4.17;3.77;;;5.10;43.30;;;;;;5061566;28;20199;-75
2022/03/12 08:21:20;;;;;;;3.60;3.30;;;5.20;42.50;;;;;;5075607;28;20179;-72
2022/03/12 08:23:49;;;;;;;3.70;3.50;;;5.30;41.70;;;;;;5084833;28;20331;-72
2022/03/12 08:26:16;;;;;;;3.97;3.37;;;5.30;41.50;;;;;;5064529;28;20648;-71
2022/03/12 08:28:42;;;;;;;4.27;3.77;;;5.50;41.50;;;;;;5081524;28;20265;-70
2022/03/12 08:31:08;;;;;;;3.50;3.20;;;5.50;41.40;;;;;;5057680;28;20206;-72
2022/03/12 08:33:35;;;;;;;3.83;3.53;;;5.60;41.40;;;;;;5060334;28;20673;-71
2022/03/12 08:36:02;;;;;;;2.93;2.73;;;5.60;40.90;;;;;;5058873;28;20232;-70
2022/03/12 08:38:28;;;;;;;4.47;4.07;;;5.80;41.10;;;;;;5060516;28;20192;-72
2022/03/12 08:40:53;;;;;;;4.17;3.13;;;5.90;40.00;;;;;;5061122;28;20176;-71
2022/03/12 08:43:21;;;;;;;4.77;3.40;;;5.90;39.90;;;;;;5054602;28;20567;-70
2022/03/12 08:45:48;;;;;;;3.47;3.27;;;6.00;39.70;;;;;;5069190;28;20248;-72
2022/03/12 08:48:15;;;;;;;3.40;3.10;;;6.20;38.90;;;;;;5076963;28;20281;-73
2022/03/12 08:50:41;;;;;;;3.77;3.40;;;6.30;39.10;;;;;;5079990;28;20646;-74
2022/03/12 08:53:07;;;;;;;3.67;3.37;;;6.50;39.00;;;;;;5070496;28;20848;-74
2022/03/12 08:55:32;;;;;;;3.50;3.20;;;6.80;38.90;;;;;;5072356;28;20174;-72
2022/03/12 08:57:58;;;;;;;3.67;3.03;;;7.20;38.50;;;;;;5080443;28;20183;-72
2022/03/12 09:00:24;;;;;;;5.37;3.37;;;8.50;37.70;;;;;;5078602;28;20732;-73
2022/03/12 09:02:50;;;;;;;4.30;3.20;;;10.70;34.40;;;;;;5074739;28;20205;-73
2022/03/12 09:05:16;;;;;;;3.75;3.33;;;12.00;32.50;;;;;;5069148;28;20198;-73
2022/03/12 09:07:44;;;;;;;3.03;2.80;;;12.80;31.00;;;;;;5064827;28;20171;-73
2022/03/12 09:10:11;;;;;;;3.97;3.35;;;12.60;30.40;;;;;;5066027;28;20171;-73
2022/03/12 09:12:41;;;;;;;4.97;3.45;;;11.80;30.40;;;;;;5073472;28;20689;-74
2022/03/12 09:15:08;;;;;;;3.55;3.20;;;10.90;30.90;;;;;;5072611;28;20205;-72
2022/03/12 09:17:34;;;;;;;4.35;3.50;;;9.80;32.40;;;;;;5081742;28;20650;-74
2022/03/12 09:20:00;;;;;;;5.70;3.28;;;9.20;33.40;;;;;;5072973;28;20277;-73
2022/03/12 09:22:25;;;;;;;4.57;3.33;;;9.00;34.00;;;;;;5065486;28;20197;-73
2022/03/12 09:24:51;;;;;;;3.35;3.13;;;9.60;34.90;;;;;;5052776;28;20381;-72
2022/03/12 09:27:16;;;;;;;3.15;2.92;;;11.10;33.30;;;;;;5053092;28;20180;-73
2022/03/12 09:29:42;;;;;;;4.57;3.50;;;13.10;30.90;;;;;;5053036;28;20255;-73
2022/03/12 09:32:08;;;;;;;3.63;3.33;;;15.70;29.40;;;;;;5053165;28;20267;-73
2022/03/12 09:34:35;;;;;;;4.40;3.28;;;16.70;28.00;;;;;;5057728;28;20230;-73
2022/03/12 09:37:02;;;;;;;3.65;3.35;;;18.50;27.50;;;;;;5083045;28;20183;-73
2022/03/12 09:39:28;;;;;;;5.88;3.90;;;20.00;26.50;;;;;;5094147;28;20230;-73
2022/03/12 09:41:54;;;;;;;4.65;3.25;;;20.90;26.40;;;;;;5076158;28;20217;-73
2022/03/12 09:44:19;;;;;;;3.35;3.05;;;22.00;25.90;;;;;;5065113;28;20298;-72
2022/03/12 09:46:45;;;;;;;3.25;3.00;;;22.60;25.30;;;;;;5083271;28;20324;-76
2022/03/12 09:49:11;;;;;;;3.47;3.17;;;22.60;24.90;;;;;;5085294;28;20710;-73
2022/03/12 09:51:38;;;;;;;4.32;3.25;;;23.60;24.60;;;;;;5074450;28;20531;-74
2022/03/12 09:54:04;;;;;;;3.70;2.78;;;24.10;24.00;;;;;;5076747;28;20210;-73
2022/03/12 09:56:30;;;;;;;3.20;2.97;;;24.20;24.10;;;;;;5087371;28;20177;-74
2022/03/12 09:58:56;;;;;;;3.22;3.03;;;24.80;23.70;;;;;;5093659;28;20202;-72
2022/03/12 10:01:22;;;;;;;3.35;3.05;;;25.10;24.10;;;;;;5094257;28;20216;-72
2022/03/12 10:03:48;;;;;;;4.00;3.00;;;25.20;23.50;;;;;;5075540;28;20242;-72
2022/03/12 10:06:15;;;;;;;3.53;3.20;;;24.70;23.40;;;;;;5073564;28;20171;-73
2022/03/12 10:08:41;;;;;;;5.32;3.25;;;24.40;23.10;;;;;;5079778;28;20166;-74
2022/03/12 10:11:07;;;;;;;3.22;3.00;;;24.70;23.40;;;;;;5065530;28;20278;-76
2022/03/12 10:13:34;;;;;;;3.72;3.42;;;24.40;23.10;;;;;;5062543;28;20290;-73
2022/03/12 10:16:01;;;;;;;4.10;3.40;;;25.10;23.50;;;;;;5069238;28;20191;-74
2022/03/12 10:18:27;;;;;;;2.47;2.38;;;25.30;23.10;;;;;;5063667;28;20530;-74
2022/03/12 10:20:53;;;;;;;3.75;2.90;;;26.00;23.00;;;;;;5067708;28;20175;-74
2022/03/12 10:23:19;;;;;;;3.40;3.20;;;26.50;22.80;;;;;;5070072;28;20202;-74
2022/03/12 10:25:45;;;;;;;3.33;2.95;;;25.70;23.10;;;;;;5064455;28;20196;-74
2022/03/12 10:28:12;;;;;;;3.03;2.63;;;25.70;22.80;;;;;;5063731;28;20635;-74
2022/03/12 10:30:38;;;;;;;3.38;3.10;;;26.00;22.90;;;;;;5063741;28;20167;-73
2022/03/12 10:33:05;;;;;;;3.90;3.60;;;26.70;23.00;;;;;;5062158;28;20561;-74
2022/03/12 10:35:36;;;;;;;3.67;3.35;;;27.30;22.80;;;;;;5064305;28;20167;-74
2022/03/12 10:38:08;;;;;;;3.45;3.00;;;27.30;22.20;;;;;;5062254;28;20594;-74
2022/03/12 10:40:34;;;;;;;2.97;2.78;;;27.50;22.40;;;;;;5060235;28;20175;-72
2022/03/12 10:43:03;;;;;;;3.67;3.47;;;27.10;22.40;;;;;;5054394;28;20192;-73
2022/03/12 10:45:43;;;;;;;3.30;3.00;;;27.50;22.10;;;;;;5061950;28;20681;-72
2022/03/12 10:48:09;;;;;;;3.15;2.95;;;27.30;22.10;;;;;;5062447;28;20182;-72
2022/03/12 10:50:41;;;;;;;3.17;2.85;;;27.80;22.10;;;;;;5066654;28;20215;-73
2022/03/12 10:53:08;;;;;;;3.58;3.28;;;28.70;22.20;;;;;;5071611;28;20202;-72
2022/03/12 10:55:37;;;;;;;3.47;3.17;;;29.00;21.80;;;;;;5051981;28;20263;-77
2022/03/12 10:58:09;;;;;;;3.35;3.13;;;28.40;21.70;;;;;;5052627;28;20531;-75
2022/03/12 11:00:41;;;;;;;3.28;3.08;;;28.30;21.60;;;;;;5064923;28;20682;-76
2022/03/12 11:03:13;;;;;;;5.25;3.15;;;26.60;22.30;;;;;;5068182;28;20208;-76
2022/03/12 11:05:41;;;;;;;3.22;2.92;;;27.10;22.60;;;;;;5074458;28;20174;-76
2022/03/12 11:08:12;;;;;;;3.75;3.45;;;28.10;22.20;;;;;;5076658;28;20213;-75
2022/03/12 11:10:45;;;;;;;3.58;3.28;;;29.00;21.50;;;;;;5079262;28;20167;-75
2022/03/12 11:13:27;;;;;;;5.65;4.28;;;29.50;21.50;;;;;;5091994;28;20324;-75
2022/03/12 11:16:07;;;;;;;4.25;3.78;;;28.90;21.50;;;;;;5071953;28;20176;-74
2022/03/12 11:18:33;;;;;;;3.40;3.10;;;28.40;21.60;;;;;;5077018;28;20187;-73
2022/03/12 11:20:59;;;;;;;3.40;3.20;;;28.90;21.70;;;;;;5071633;28;20665;-73
2022/03/12 11:23:29;;;;;;;4.00;3.70;;;30.00;21.60;;;;;;5061323;28;20216;-74
2022/03/12 11:25:59;;;;;;;3.65;3.15;;;29.50;21.30;;;;;;5072275;28;20182;-73
2022/03/12 11:28:26;;;;;;;3.95;3.65;;;30.20;21.60;;;;;;5069856;28;20345;-73
2022/03/12 11:30:52;;;;;;;3.75;3.40;;;30.20;21.60;;;;;;5068896;28;20186;-73
2022/03/12 11:33:18;;;;;;;3.20;3.00;;;30.40;21.20;;;;;;5074395;28;20273;-74
2022/03/12 11:35:45;;;;;;;3.42;3.20;;;31.60;21.20;;;;;;5065186;28;20672;-74
2022/03/12 11:38:17;;;;;;;3.38;3.17;;;31.80;21.30;;;;;;5057687;28;20182;-75
2022/03/12 11:40:46;;;;;;;4.15;3.45;;;31.60;21.20;;;;;;5062920;28;20176;-74
2022/03/12 11:43:23;;;;;;;3.70;3.40;;;31.50;21.20;;;;;;5068476;28;20213;-73
2022/03/12 11:45:48;;;;;;;3.22;3.03;;;31.50;20.90;;;;;;5066401;28;20199;-74
2022/03/12 11:48:15;;;;;;;4.72;3.22;;;32.00;21.40;;;;;;5064812;28;20212;-71
2022/03/12 11:50:40;;;;;;;3.28;3.03;;;31.10;21.20;;;;;;5063470;28;20745;-72
2022/03/12 11:53:06;;;;;;;3.83;3.53;;;30.90;21.40;;;;;;5064902;28;20278;-72
2022/03/12 11:55:33;;;;;;;4.25;3.95;;;30.90;21.10;;;;;;5068254;28;20229;-72
2022/03/12 11:58:02;;;;;;;4.60;3.55;;;29.40;21.50;;;;;;5071763;28;20395;-70
2022/03/12 12:00:29;;;;;;;4.00;3.47;;;28.70;21.80;;;;;;5073870;28;20550;-73
2022/03/12 12:02:56;;;;;;;3.63;3.33;;;28.10;21.80;;;;;;5071583;28;20264;-73
2022/03/12 12:05:25;;;;;;;3.58;3.28;;;27.20;22.80;;;;;;5076201;28;20198;-73
2022/03/12 12:07:51;;;;;;;3.47;3.28;;;28.50;22.30;;;;;;5065014;28;20168;-73
2022/03/12 12:10:30;;;;;;;3.88;3.58;;;29.10;21.80;;;;;;5057866;28;20175;-74
2022/03/12 12:12:58;;;;;;;4.03;3.72;;;29.70;22.00;;;;;;5081662;28;20194;-73
2022/03/12 12:15:29;;;;;;;3.63;3.35;;;29.60;22.10;;;;;;5072755;28;20567;-75
2022/03/12 12:17:56;;;;;;;5.05;3.80;;;29.90;22.20;;;;;;5072571;28;20526;-73
2022/03/12 12:20:22;;;;;;;4.45;4.05;;;30.10;22.00;;;;;;5081094;28;20564;-74
2022/03/12 12:22:48;;;;;;;4.20;3.90;;;30.70;21.60;;;;;;5071905;28;20191;-73
2022/03/12 12:25:16;;;;;;;5.38;4.65;;;30.40;22.10;;;;;;5072001;28;20187;-72
2022/03/12 12:27:53;;;;;;;3.75;3.45;;;30.20;22.10;;;;;;5076977;28;20170;-73
2022/03/12 12:30:25;;;;;;;3.75;3.45;;;30.50;21.80;;;;;;5062382;28;20282;-73
2022/03/12 12:32:51;;;;;;;3.97;3.70;;;30.30;21.60;;;;;;5077658;28;20198;-72
2022/03/12 12:35:22;;;;;;;4.95;3.90;;;30.40;21.80;;;;;;5082304;28;20228;-72
2022/03/12 12:38:04;;;;;;;4.30;3.90;;;31.60;22.10;;;;;;5090583;28;20182;-73
2022/03/12 12:40:36;;;;;;;3.10;2.90;;;31.50;21.70;;;;;;5063852;28;20207;-72
2022/03/12 12:43:09;;;;;;;4.13;3.83;;;31.30;21.30;;;;;;5066336;28;20203;-72
2022/03/12 12:45:52;;;;;;;3.83;3.63;;;31.70;21.40;;;;;;5064450;28;20191;-72
2022/03/12 12:48:26;;;;;;;4.25;3.95;;;31.40;21.50;;;;;;5081923;28;20668;-72